createdAt,value
2023-03-17T00:00:33.854Z,11.09
2023-03-17T00:02:05.626Z,11.06
2023-03-17T00:03:38.484Z,11.09
2023-03-17T00:05:17.717Z,11.11
2023-03-17T00:06:49.567Z,11.14
2023-03-17T00:08:22.317Z,11.23
2023-03-17T00:09:53.967Z,11.20
2023-03-17T00:11:26.454Z,11.24
2023-03-17T00:12:58.025Z,11.22
2023-03-17T00:14:30.937Z,11.26
2023-03-17T00:16:04.402Z,11.25
2023-03-17T00:17:38.096Z,11.26
2023-03-17T00:19:12.426Z,11.23
2023-03-17T00:20:44.666Z,11.23
2023-03-17T00:22:18.323Z,11.21
2023-03-17T00:23:51.756Z,11.22
2023-03-17T00:25:24.567Z,11.25
2023-03-17T00:26:56.307Z,11.26
2023-03-17T00:28:27.955Z,11.24
2023-03-17T00:30:01.155Z,11.23
2023-03-17T00:31:34.297Z,11.19
2023-03-17T00:33:06.276Z,11.21
2023-03-17T00:34:38.251Z,11.23
2023-03-17T00:36:12.572Z,11.23
2023-03-17T00:37:45.162Z,11.23
2023-03-17T00:39:17.273Z,11.22
2023-03-17T00:40:49.054Z,11.21
2023-03-17T00:42:20.619Z,11.19
2023-03-17T00:43:52.201Z,11.22
2023-03-17T00:45:25.780Z,11.18
2023-03-17T00:46:57.826Z,11.14
2023-03-17T00:48:31.242Z,11.15
2023-03-17T00:50:04.925Z,11.16
2023-03-17T00:51:37.722Z,11.12
2023-03-17T00:53:11.987Z,11.11
2023-03-17T00:54:43.457Z,11.11
2023-03-17T00:56:16.057Z,11.08
2023-03-17T00:57:48.557Z,11.09
2023-03-17T00:59:24.239Z,11.05
2023-03-17T01:00:57.228Z,11.04
2023-03-17T01:02:29.427Z,11.03
2023-03-17T01:04:01.880Z,10.99
2023-03-17T01:05:33.663Z,10.99
2023-03-17T01:07:06.272Z,10.95
2023-03-17T01:08:39.028Z,10.96
2023-03-17T01:10:14.182Z,10.95
2023-03-17T01:11:47.012Z,10.94
2023-03-17T01:13:19.512Z,10.94
2023-03-17T01:14:51.180Z,10.90
2023-03-17T01:16:24.151Z,10.89
2023-03-17T01:17:57.228Z,10.88
2023-03-17T01:19:28.829Z,10.88
2023-03-17T01:21:00.444Z,10.85
2023-03-17T01:22:32.128Z,10.81
2023-03-17T01:24:04.420Z,10.82
2023-03-17T01:25:38.220Z,10.79
2023-03-17T01:27:10.326Z,10.79
2023-03-17T01:28:42.282Z,10.80
2023-03-17T01:30:23.248Z,10.77
2023-03-17T01:31:56.267Z,10.76
2023-03-17T01:33:29.007Z,10.78
2023-03-17T01:35:00.618Z,10.76
2023-03-17T01:36:32.253Z,10.74
2023-03-17T01:38:04.023Z,10.75
2023-03-17T01:39:35.593Z,10.75
2023-03-17T01:41:07.162Z,10.70
2023-03-17T01:42:39.612Z,10.64
2023-03-17T01:44:15.720Z,10.56
2023-03-17T01:46:25.223Z,10.63
2023-03-17T01:47:59.132Z,10.68
2023-03-17T01:49:33.358Z,10.59
2023-03-17T01:51:06.360Z,10.56
2023-03-17T01:52:39.738Z,10.62
2023-03-17T01:54:14.199Z,10.65
2023-03-17T01:55:47.066Z,10.63
2023-03-17T01:57:21.300Z,10.57
2023-03-17T01:58:54.623Z,10.55
2023-03-17T02:00:26.592Z,10.58
2023-03-17T02:02:01.453Z,10.54
2023-03-17T02:03:34.419Z,10.54
2023-03-17T02:05:07.516Z,10.57
2023-03-17T02:06:55.049Z,10.53
2023-03-17T02:08:28.630Z,10.59
2023-03-17T02:10:00.539Z,10.61
2023-03-17T02:11:33.989Z,10.56
2023-03-17T02:13:06.078Z,10.59
2023-03-17T02:14:37.699Z,10.57
2023-03-17T02:16:13.551Z,10.58
2023-03-17T02:17:45.225Z,10.58
2023-03-17T02:19:19.486Z,10.58
2023-03-17T02:21:11.993Z,10.60
2023-03-17T02:22:48.966Z,10.55
2023-03-17T02:24:23.542Z,10.52
2023-03-17T02:25:55.499Z,10.54
2023-03-17T02:27:31.128Z,10.53
2023-03-17T02:29:03.727Z,10.53
2023-03-17T02:30:35.986Z,10.52
2023-03-17T02:32:07.792Z,10.54
2023-03-17T02:33:39.327Z,10.52
2023-03-17T02:35:11.297Z,10.52
2023-03-17T02:36:42.963Z,10.50
2023-03-17T02:38:15.912Z,10.46
2023-03-17T02:39:47.615Z,10.39
2023-03-17T02:41:19.216Z,10.37
2023-03-17T02:42:51.344Z,10.34
2023-03-17T02:44:23.016Z,10.39
2023-03-17T02:45:57.657Z,10.41
2023-03-17T02:47:29.240Z,10.36
2023-03-17T02:49:02.050Z,10.30
2023-03-17T02:50:33.615Z,10.30
2023-03-17T02:52:05.894Z,10.27
2023-03-17T02:53:38.840Z,10.29
2023-03-17T02:55:10.576Z,10.30
2023-03-17T02:56:42.121Z,10.29
2023-03-17T02:58:13.733Z,10.30
2023-03-17T02:59:45.614Z,10.31
2023-03-17T03:01:18.252Z,10.32
2023-03-17T03:02:49.881Z,10.33
2023-03-17T03:04:21.927Z,10.29
2023-03-17T03:05:53.749Z,10.31
2023-03-17T03:07:25.354Z,10.31
2023-03-17T03:08:58.367Z,10.30
2023-03-17T03:10:30.095Z,10.25
2023-03-17T03:12:01.943Z,10.26
2023-03-17T03:13:33.633Z,10.22
2023-03-17T03:15:06.903Z,10.22
2023-03-17T03:16:38.933Z,10.21
2023-03-17T03:18:10.524Z,10.18
2023-03-17T03:19:42.316Z,10.18
2023-03-17T03:21:13.933Z,10.17
2023-03-17T03:22:45.517Z,10.18
2023-03-17T03:24:18.394Z,10.14
2023-03-17T03:25:49.958Z,10.15
2023-03-17T03:27:21.704Z,10.15
2023-03-17T03:28:53.910Z,10.16
2023-03-17T03:30:27.111Z,10.15
2023-03-17T03:31:58.798Z,10.13
2023-03-17T03:33:30.445Z,10.12
2023-03-17T03:35:02.016Z,10.14
2023-03-17T03:36:33.644Z,10.16
2023-03-17T03:38:05.256Z,10.17
2023-03-17T03:39:39.211Z,10.07
2023-03-17T03:41:11.716Z,10.05
2023-03-17T03:42:43.293Z,10.11
2023-03-17T03:44:15.621Z,10.12
2023-03-17T03:45:47.410Z,10.13
2023-03-17T03:47:18.917Z,10.14
2023-03-17T03:48:50.590Z,10.16
2023-03-17T03:50:22.660Z,10.10
2023-03-17T03:51:54.212Z,10.14
2023-03-17T03:53:26.144Z,10.13
2023-03-17T03:54:59.064Z,10.17
2023-03-17T03:56:30.827Z,10.17
2023-03-17T03:58:02.792Z,10.15
2023-03-17T03:59:34.364Z,10.18
2023-03-17T04:01:06.447Z,10.14
2023-03-17T04:02:38.297Z,10.15
2023-03-17T04:04:09.870Z,10.17
2023-03-17T04:05:41.963Z,10.18
2023-03-17T04:07:13.535Z,10.16
2023-03-17T04:08:45.158Z,10.17
2023-03-17T04:10:18.246Z,10.20
2023-03-17T04:11:49.918Z,10.18
2023-03-17T04:13:21.426Z,10.19
2023-03-17T04:14:53.022Z,10.22
2023-03-17T04:16:24.700Z,10.24
2023-03-17T04:17:56.553Z,10.23
2023-03-17T04:19:28.119Z,10.21
2023-03-17T04:20:59.679Z,10.17
2023-03-17T04:22:31.677Z,10.21
2023-03-17T04:24:05.142Z,10.16
2023-03-17T04:25:38.883Z,10.22
2023-03-17T04:27:10.512Z,10.25
2023-03-17T04:28:42.099Z,10.24
2023-03-17T04:30:14.677Z,10.23
2023-03-17T04:31:46.643Z,10.21
2023-03-17T04:33:20.219Z,10.20
2023-03-17T04:34:51.970Z,10.18
2023-03-17T04:36:24.322Z,10.17
2023-03-17T04:37:55.914Z,10.13
2023-03-17T04:39:27.722Z,10.18
2023-03-17T04:41:00.791Z,10.19
2023-03-17T04:42:32.435Z,10.19
2023-03-17T04:44:03.971Z,10.17
2023-03-17T04:45:36.533Z,10.18
2023-03-17T04:47:08.180Z,10.15
2023-03-17T04:48:39.916Z,10.14
2023-03-17T04:50:12.133Z,10.12
2023-03-17T04:51:44.142Z,10.14
2023-03-17T04:53:15.751Z,10.15
2023-03-17T04:54:47.341Z,10.13
2023-03-17T04:56:21.049Z,10.11
2023-03-17T04:57:52.565Z,10.13
2023-03-17T04:59:24.148Z,10.10
2023-03-17T05:00:55.931Z,10.10
2023-03-17T05:02:28.111Z,10.10
2023-03-17T05:03:59.760Z,10.10
2023-03-17T05:05:31.329Z,10.08
2023-03-17T05:07:03.289Z,10.09
2023-03-17T05:08:34.812Z,10.04
2023-03-17T05:10:06.911Z,10.08
2023-03-17T05:11:41.700Z,10.08
2023-03-17T05:13:13.338Z,10.08
2023-03-17T05:14:45.198Z,10.03
2023-03-17T05:16:16.926Z,10.00
2023-03-17T05:17:48.515Z,9.97
2023-03-17T05:19:20.371Z,9.99
2023-03-17T05:20:52.302Z,10.01
2023-03-17T05:22:23.849Z,9.98
2023-03-17T05:23:55.872Z,9.93
2023-03-17T05:25:27.416Z,9.93
2023-03-17T05:27:00.374Z,9.93
2023-03-17T05:28:32.531Z,9.92
2023-03-17T05:30:04.782Z,9.94
2023-03-17T05:31:38.433Z,9.94
2023-03-17T05:33:10.144Z,9.93
2023-03-17T05:34:41.693Z,9.92
2023-03-17T05:36:13.444Z,9.90
2023-03-17T05:37:45.358Z,9.92
2023-03-17T05:39:17.421Z,9.97
2023-03-17T05:40:49.659Z,10.01
2023-03-17T05:42:22.609Z,10.01
2023-03-17T05:43:54.206Z,10.03
2023-03-17T05:45:25.902Z,10.01
2023-03-17T05:46:59.625Z,10.04
2023-03-17T05:48:31.366Z,10.06
2023-03-17T05:50:03.387Z,10.08
2023-03-17T05:51:36.970Z,10.12
2023-03-17T05:53:08.747Z,10.13
2023-03-17T05:54:40.644Z,10.13
2023-03-17T05:56:12.830Z,10.13
2023-03-17T05:57:46.409Z,10.15
2023-03-17T05:59:18.575Z,10.12
2023-03-17T06:00:50.377Z,10.13
2023-03-17T06:02:22.032Z,10.13
2023-03-17T06:03:54.296Z,10.09
2023-03-17T06:05:27.390Z,10.10
2023-03-17T06:06:59.013Z,10.10
2023-03-17T06:08:30.773Z,10.10
2023-03-17T06:10:02.336Z,10.10
2023-03-17T06:11:34.082Z,10.09
2023-03-17T06:13:07.074Z,10.08
2023-03-17T06:14:38.556Z,10.08
2023-03-17T06:16:10.218Z,10.11
2023-03-17T06:17:42.196Z,10.10
2023-03-17T06:19:13.778Z,10.12
2023-03-17T06:20:46.171Z,10.12
2023-03-17T06:22:17.918Z,10.16
2023-03-17T06:23:49.466Z,10.14
2023-03-17T06:25:21.062Z,10.15
2023-03-17T06:26:52.980Z,10.16
2023-03-17T06:28:26.014Z,10.20
2023-03-17T06:29:58.750Z,10.23
2023-03-17T06:31:30.494Z,10.23
2023-03-17T06:33:03.212Z,10.29
2023-03-17T06:34:35.150Z,10.29
2023-03-17T06:36:08.183Z,10.29
2023-03-17T06:37:39.788Z,10.32
2023-03-17T06:39:11.875Z,10.36
2023-03-17T06:40:43.647Z,10.42
2023-03-17T06:42:15.712Z,10.44
2023-03-17T06:43:48.716Z,10.46
2023-03-17T06:45:20.563Z,10.50
2023-03-17T06:46:52.750Z,10.56
2023-03-17T06:48:25.067Z,10.57
2023-03-17T06:49:56.719Z,10.62
2023-03-17T06:51:28.299Z,10.66
2023-03-17T06:52:59.876Z,10.67
2023-03-17T06:54:32.898Z,10.74
2023-03-17T06:56:05.187Z,10.78
2023-03-17T06:57:37.371Z,10.82
2023-03-17T06:59:11.356Z,10.85
2023-03-17T07:00:45.713Z,10.89
2023-03-17T07:02:17.350Z,10.97
2023-03-17T07:03:48.985Z,11.00
2023-03-17T07:05:20.808Z,11.03
2023-03-17T07:06:54.055Z,11.07
2023-03-17T07:08:25.757Z,11.10
2023-03-17T07:09:58.309Z,11.13
2023-03-17T07:11:30.849Z,11.15
2023-03-17T07:13:02.603Z,11.21
2023-03-17T07:14:36.861Z,11.25
2023-03-17T07:16:09.468Z,11.27
2023-03-17T07:17:41.387Z,11.32
2023-03-17T07:19:13.032Z,11.40
2023-03-17T07:20:44.749Z,11.49
2023-03-17T07:22:16.331Z,11.53
2023-03-17T07:23:48.052Z,11.58
2023-03-17T07:25:19.863Z,11.62
2023-03-17T07:26:51.714Z,11.66
2023-03-17T07:28:23.737Z,11.69
2023-03-17T07:29:57.053Z,11.74
2023-03-17T07:31:29.020Z,11.86
2023-03-17T07:33:01.270Z,11.96
2023-03-17T07:34:33.137Z,12.02
2023-03-17T07:36:07.346Z,12.05
2023-03-17T07:37:40.105Z,12.08
2023-03-17T07:39:12.924Z,12.10
2023-03-17T07:40:46.785Z,12.15
2023-03-17T07:42:18.484Z,12.18
2023-03-17T07:43:50.102Z,12.29
2023-03-17T07:45:23.134Z,12.38
2023-03-17T07:46:55.171Z,12.48
2023-03-17T07:48:26.874Z,12.60
2023-03-17T07:49:58.454Z,12.66
2023-03-17T07:51:30.125Z,12.66
2023-03-17T07:53:03.255Z,12.69
2023-03-17T07:54:35.708Z,12.72
2023-03-17T07:56:07.667Z,12.75
2023-03-17T07:57:39.769Z,12.75
2023-03-17T07:59:11.386Z,12.78
2023-03-17T08:00:47.146Z,12.83
2023-03-17T08:02:19.535Z,12.86
2023-03-17T08:03:51.238Z,12.84
2023-03-17T08:05:24.221Z,12.90
2023-03-17T08:06:56.995Z,12.91
2023-03-17T08:08:28.913Z,12.89
2023-03-17T08:10:00.698Z,12.90
2023-03-17T08:11:32.270Z,12.91
2023-03-17T08:13:03.981Z,12.88
2023-03-17T08:14:35.841Z,12.87
2023-03-17T08:16:09.273Z,12.88
2023-03-17T08:17:40.947Z,12.83
2023-03-17T08:19:13.974Z,12.80
2023-03-17T08:20:46.925Z,12.81
2023-03-17T08:22:21.574Z,12.79
2023-03-17T08:23:53.144Z,12.80
2023-03-17T08:25:24.943Z,12.79
2023-03-17T08:26:58.582Z,12.83
2023-03-17T08:28:32.415Z,12.86
2023-03-17T08:30:05.730Z,12.88
2023-03-17T08:31:38.862Z,12.88
2023-03-17T08:33:10.641Z,12.89
2023-03-17T08:34:44.591Z,12.91
2023-03-17T08:36:16.604Z,12.94
2023-03-17T08:37:48.194Z,12.96
2023-03-17T08:39:21.548Z,13.01
2023-03-17T08:40:53.133Z,13.03
2023-03-17T08:42:24.804Z,13.13
2023-03-17T08:43:58.079Z,13.23
2023-03-17T08:45:30.692Z,13.33
2023-03-17T08:47:04.011Z,13.40
2023-03-17T08:48:36.492Z,13.46
2023-03-17T08:50:09.215Z,13.57
2023-03-17T08:51:40.872Z,13.63
2023-03-17T08:53:14.321Z,13.68
2023-03-17T08:54:47.184Z,13.69
2023-03-17T08:56:19.272Z,13.72
2023-03-17T08:57:51.215Z,13.74
2023-03-17T08:59:23.123Z,13.76
2023-03-17T09:00:58.146Z,13.81
2023-03-17T09:02:31.382Z,13.83
2023-03-17T09:04:03.665Z,13.83
2023-03-17T09:05:38.585Z,13.82
2023-03-17T09:07:11.508Z,13.74
2023-03-17T09:08:47.443Z,13.76
2023-03-17T09:10:22.596Z,13.77
2023-03-17T09:11:54.368Z,13.78
2023-03-17T09:13:25.990Z,13.85
2023-03-17T09:14:58.005Z,13.93
2023-03-17T09:16:33.975Z,14.08
2023-03-17T09:18:08.642Z,14.20
2023-03-17T09:19:40.521Z,14.29
2023-03-17T09:21:12.881Z,14.39
2023-03-17T09:22:44.570Z,14.52
2023-03-17T09:24:16.157Z,14.63
2023-03-17T09:25:47.872Z,14.67
2023-03-17T09:27:19.472Z,14.74
2023-03-17T09:28:51.119Z,14.79
2023-03-17T09:30:23.019Z,14.86
2023-03-17T09:31:55.797Z,14.92
2023-03-17T09:33:29.379Z,14.95
2023-03-17T09:35:01.143Z,14.98
2023-03-17T09:36:34.167Z,15.07
2023-03-17T09:38:06.153Z,15.17
2023-03-17T09:39:37.854Z,15.20
2023-03-17T09:41:20.975Z,15.20
2023-03-17T09:42:56.559Z,15.23
2023-03-17T09:44:46.348Z,15.27
2023-03-17T09:46:35.032Z,15.24
2023-03-17T09:48:17.595Z,15.17
2023-03-17T09:49:52.320Z,15.15
2023-03-17T09:51:23.962Z,15.20
2023-03-17T09:52:56.813Z,15.25
2023-03-17T09:54:31.315Z,15.28
2023-03-17T09:56:06.884Z,15.31
2023-03-17T09:57:39.842Z,15.36
2023-03-17T09:59:27.959Z,15.43
2023-03-17T10:01:00.545Z,15.50
2023-03-17T10:02:33.257Z,15.53
2023-03-17T10:04:05.252Z,15.56
2023-03-17T10:05:38.865Z,15.65
2023-03-17T10:07:16.676Z,15.64
2023-03-17T10:08:51.624Z,15.68
2023-03-17T10:10:29.372Z,15.78
2023-03-17T10:12:04.414Z,15.90
2023-03-17T10:13:42.279Z,15.97
2023-03-17T10:15:18.401Z,16.03
2023-03-17T10:16:53.994Z,16.00
2023-03-17T10:18:29.888Z,15.90
2023-03-17T10:20:05.017Z,15.88
2023-03-17T10:21:43.809Z,15.83
2023-03-17T10:23:18.005Z,15.83
2023-03-17T10:24:51.183Z,15.84
2023-03-17T10:26:27.110Z,15.87
2023-03-17T10:28:00.436Z,15.88
2023-03-17T10:29:32.679Z,15.91
2023-03-17T10:31:13.489Z,15.97
2023-03-17T10:32:45.781Z,16.01
2023-03-17T10:34:18.941Z,16.15
2023-03-17T10:35:50.901Z,16.29
2023-03-17T10:37:24.321Z,16.43
2023-03-17T10:38:56.447Z,16.51
2023-03-17T10:40:30.559Z,16.58
2023-03-17T10:42:09.071Z,16.62
2023-03-17T10:43:43.369Z,16.66
2023-03-17T10:45:16.859Z,16.74
2023-03-17T10:46:53.265Z,16.85
2023-03-17T10:48:25.272Z,16.95
2023-03-17T10:49:57.943Z,17.04
2023-03-17T10:51:31.727Z,17.16
2023-03-17T10:53:09.589Z,17.27
2023-03-17T10:54:41.931Z,17.34
2023-03-17T10:56:20.396Z,17.37
2023-03-17T10:57:54.463Z,17.35
2023-03-17T10:59:28.531Z,17.37
2023-03-17T11:01:05.679Z,17.41
2023-03-17T11:02:43.416Z,17.44
2023-03-17T11:04:26.529Z,17.49
2023-03-17T11:06:01.174Z,17.50
2023-03-17T11:07:35.928Z,17.47
2023-03-17T11:09:10.998Z,17.42
2023-03-17T11:10:43.125Z,17.41
2023-03-17T11:12:38.406Z,17.43
2023-03-17T11:14:11.886Z,17.52
2023-03-17T11:15:50.150Z,17.63
2023-03-17T11:17:29.697Z,17.73
2023-03-17T11:19:02.698Z,17.89
2023-03-17T11:20:49.876Z,18.05
2023-03-17T11:22:26.910Z,18.15
2023-03-17T11:24:01.374Z,18.21
2023-03-17T11:25:36.731Z,18.25
2023-03-17T11:27:11.916Z,18.27
2023-03-17T11:28:47.890Z,18.25
2023-03-17T11:30:25.400Z,18.21
2023-03-17T11:31:59.704Z,18.19
2023-03-17T11:33:36.247Z,18.23
2023-03-17T11:35:29.442Z,18.30
2023-03-17T11:37:07.043Z,18.35
2023-03-17T11:38:45.003Z,18.33
2023-03-17T11:40:20.317Z,18.32
2023-03-17T11:41:59.083Z,18.30
2023-03-17T11:43:33.586Z,18.39
2023-03-17T11:45:17.614Z,18.48
2023-03-17T11:46:52.417Z,18.60
2023-03-17T11:48:31.685Z,18.70
2023-03-17T11:50:07.990Z,18.81
2023-03-17T11:51:49.255Z,18.98
2023-03-17T11:53:27.993Z,19.13
2023-03-17T11:55:06.119Z,19.21
2023-03-17T11:56:40.217Z,19.20
2023-03-17T11:58:16.077Z,19.23
2023-03-17T11:59:52.202Z,19.25
2023-03-17T12:01:27.236Z,19.25
2023-03-17T12:03:01.986Z,19.18
2023-03-17T12:04:35.411Z,19.10
2023-03-17T12:06:11.929Z,19.03
2023-03-17T12:07:46.716Z,18.95
2023-03-17T12:09:23.743Z,18.94
2023-03-17T12:10:57.319Z,18.94
2023-03-17T12:12:31.982Z,18.97
2023-03-17T12:14:06.431Z,19.05
2023-03-17T12:15:40.133Z,19.19
2023-03-17T12:17:16.174Z,19.21
2023-03-17T12:18:54.497Z,19.20
2023-03-17T12:20:31.723Z,19.16
2023-03-17T12:22:07.396Z,19.13
2023-03-17T12:23:45.336Z,19.15
2023-03-17T12:25:20.718Z,19.17
2023-03-17T12:26:57.941Z,19.22
2023-03-17T12:28:33.421Z,19.26
2023-03-17T12:30:14.749Z,19.28
2023-03-17T12:31:48.883Z,19.30
2023-03-17T12:33:22.806Z,19.37
2023-03-17T12:34:57.412Z,19.46
2023-03-17T12:36:29.375Z,19.54
2023-03-17T12:38:02.902Z,19.60
2023-03-17T12:39:35.169Z,19.66
2023-03-17T12:41:15.433Z,19.64
2023-03-17T12:42:54.544Z,19.61
2023-03-17T12:44:33.223Z,19.67
2023-03-17T12:46:16.586Z,19.73
2023-03-17T12:47:58.432Z,19.71
2023-03-17T12:49:47.865Z,19.76
2023-03-17T12:51:34.765Z,19.74
2023-03-17T12:53:21.963Z,19.71
2023-03-17T12:54:53.922Z,19.68
2023-03-17T12:56:27.551Z,19.68
2023-03-17T12:58:00.327Z,19.66
2023-03-17T12:59:34.225Z,19.70
2023-03-17T13:01:09.246Z,19.74
2023-03-17T13:02:45.310Z,19.89
2023-03-17T13:04:18.697Z,20.06
2023-03-17T13:05:51.810Z,20.20
2023-03-17T13:07:24.489Z,20.25
2023-03-17T13:08:56.406Z,20.20
2023-03-17T13:10:39.964Z,20.18
2023-03-17T13:12:30.563Z,20.20
2023-03-17T13:14:15.506Z,20.29
2023-03-17T13:15:58.411Z,20.37
2023-03-17T13:17:31.682Z,20.42
2023-03-17T13:19:21.192Z,20.53
2023-03-17T13:21:10.394Z,20.64
2023-03-17T13:22:43.069Z,20.68
2023-03-17T13:24:22.440Z,20.70
2023-03-17T13:25:54.959Z,20.68
2023-03-17T13:27:43.854Z,20.70
2023-03-17T13:29:23.613Z,20.77
2023-03-17T13:30:57.154Z,20.91
2023-03-17T13:32:36.643Z,21.04
2023-03-17T13:34:15.210Z,21.24
2023-03-17T13:35:52.577Z,21.48
2023-03-17T13:37:29.704Z,21.72
2023-03-17T13:39:24.768Z,21.92
2023-03-17T13:41:13.955Z,22.09
2023-03-17T13:42:57.441Z,22.25
2023-03-17T13:44:34.090Z,22.39
2023-03-17T13:46:22.508Z,22.51
2023-03-17T13:48:14.218Z,22.62
2023-03-17T13:49:47.258Z,22.60
2023-03-17T13:51:20.692Z,22.47
2023-03-17T13:52:56.890Z,22.40
2023-03-17T13:54:44.182Z,22.33
2023-03-17T13:56:19.578Z,22.32
2023-03-17T13:57:57.321Z,22.29
2023-03-17T13:59:35.796Z,22.25
2023-03-17T14:01:12.557Z,22.15
2023-03-17T14:02:45.514Z,22.07
2023-03-17T14:04:22.118Z,22.06
2023-03-17T14:05:54.511Z,22.16
2023-03-17T14:07:28.285Z,22.30
2023-03-17T14:09:08.339Z,22.34
2023-03-17T14:10:39.956Z,22.43
2023-03-17T14:12:13.121Z,22.49
2023-03-17T14:13:48.856Z,22.40
2023-03-17T14:15:24.348Z,22.42
2023-03-17T14:16:58.324Z,22.50
2023-03-17T14:18:32.281Z,22.51
2023-03-17T14:20:08.253Z,22.34
2023-03-17T14:21:42.098Z,22.22
2023-03-17T14:23:14.741Z,22.20
2023-03-17T14:24:51.646Z,22.13
2023-03-17T14:26:23.679Z,22.00
2023-03-17T14:27:57.729Z,21.86
2023-03-17T14:29:32.116Z,21.80
2023-03-17T14:31:04.815Z,21.82
2023-03-17T14:32:36.617Z,21.77
2023-03-17T14:34:12.193Z,21.75
2023-03-17T14:35:43.891Z,21.81
2023-03-17T14:37:17.578Z,22.07
2023-03-17T14:38:50.453Z,22.45
2023-03-17T14:40:25.433Z,22.67
2023-03-17T14:41:58.693Z,22.84
2023-03-17T14:43:31.435Z,23.08
2023-03-17T14:45:04.258Z,23.43
2023-03-17T14:46:38.137Z,23.70
2023-03-17T14:48:12.340Z,23.89
2023-03-17T14:49:44.044Z,23.84
2023-03-17T14:51:23.684Z,23.60
2023-03-17T14:52:57.489Z,23.25
2023-03-17T14:56:04.513Z,22.64
2023-03-17T14:57:38.667Z,22.39
2023-03-17T14:59:18.223Z,22.25
2023-03-17T15:00:55.017Z,22.11
2023-03-17T15:02:33.061Z,21.97
2023-03-17T15:04:08.000Z,21.84
2023-03-17T15:05:40.637Z,21.76
2023-03-17T15:07:28.554Z,21.69
2023-03-17T15:09:03.038Z,21.56
2023-03-17T15:10:41.451Z,21.42
2023-03-17T15:12:16.246Z,21.34
2023-03-17T15:13:49.199Z,21.27
2023-03-17T15:15:23.029Z,21.22
2023-03-17T15:16:56.563Z,21.15
2023-03-17T15:18:28.171Z,21.07
2023-03-17T15:20:00.965Z,21.07
2023-03-17T15:21:34.041Z,20.97
2023-03-17T15:23:14.524Z,20.77
2023-03-17T15:24:51.300Z,20.53
2023-03-17T15:26:24.365Z,20.35
2023-03-17T15:27:57.879Z,20.25
2023-03-17T15:29:29.713Z,20.18
2023-03-17T15:31:11.439Z,20.17
2023-03-17T15:32:43.196Z,20.17
2023-03-17T15:34:16.346Z,20.14
2023-03-17T15:35:48.079Z,20.11
2023-03-17T15:37:21.396Z,20.07
2023-03-17T15:38:53.810Z,20.00
2023-03-17T15:43:00.794Z,19.76
2023-03-17T15:44:32.457Z,19.77
2023-03-17T15:46:06.347Z,19.75
2023-03-17T15:47:40.163Z,19.76
2023-03-17T15:49:12.464Z,19.68
2023-03-17T15:50:45.459Z,19.59
2023-03-17T15:52:18.234Z,19.53
2023-03-17T15:53:49.968Z,19.44
2023-03-17T15:55:23.048Z,19.38
2023-03-17T15:56:56.380Z,19.30
2023-03-17T15:58:29.438Z,19.24
2023-03-17T16:00:01.744Z,19.14
2023-03-17T16:01:35.165Z,19.12
2023-03-17T16:03:13.173Z,19.06
2023-03-17T16:04:44.988Z,19.00
2023-03-17T16:06:17.718Z,19.03
2023-03-17T16:07:49.636Z,19.02
2023-03-17T16:09:21.984Z,18.96
2023-03-17T16:10:55.141Z,18.92
2023-03-17T16:12:27.684Z,18.86
2023-03-17T16:14:01.075Z,18.83
2023-03-17T16:15:37.487Z,18.77
2023-03-17T16:17:15.812Z,18.71
2023-03-17T16:18:49.229Z,18.65
2023-03-17T16:20:23.697Z,18.61
2023-03-17T16:21:56.614Z,18.63
2023-03-17T16:23:29.952Z,18.59
2023-03-17T16:25:01.681Z,18.52
2023-03-17T16:26:33.471Z,18.46
2023-03-17T16:28:13.271Z,18.43
2023-03-17T16:29:46.223Z,18.41
2023-03-17T16:31:19.571Z,18.37
2023-03-17T16:32:51.776Z,18.33
2023-03-17T16:34:24.684Z,18.32
2023-03-17T16:35:57.540Z,18.28
2023-03-17T16:37:29.241Z,18.28
2023-03-17T16:39:01.484Z,18.28
2023-03-17T16:40:33.885Z,18.25
2023-03-17T16:42:06.644Z,18.19
2023-03-17T16:43:38.852Z,18.17
2023-03-17T16:45:15.009Z,18.12
2023-03-17T16:46:47.156Z,18.11
2023-03-17T16:48:19.148Z,18.07
2023-03-17T16:49:50.762Z,18.05
2023-03-17T16:51:22.897Z,18.00
2023-03-17T16:52:54.845Z,17.99
2023-03-17T16:54:31.379Z,18.00
2023-03-17T16:56:03.818Z,17.95
2023-03-17T16:57:36.191Z,17.90
2023-03-17T16:59:10.500Z,17.86
2023-03-17T17:00:46.366Z,17.87
2023-03-17T17:02:18.491Z,17.84
2023-03-17T17:03:50.426Z,17.86
2023-03-17T17:05:23.378Z,17.86
2023-03-17T17:06:56.666Z,17.83
2023-03-17T17:08:28.292Z,17.79
2023-03-17T17:10:00.375Z,17.74
2023-03-17T17:11:32.171Z,17.71
2023-03-17T17:13:07.526Z,17.67
2023-03-17T17:14:39.541Z,17.60
2023-03-17T17:16:17.529Z,17.55
2023-03-17T17:17:50.852Z,17.51
2023-03-17T17:19:23.039Z,17.46
2023-03-17T17:20:55.019Z,17.45
2023-03-17T17:22:26.751Z,17.48
2023-03-17T17:23:58.717Z,17.45
2023-03-17T17:25:30.788Z,17.39
2023-03-17T17:27:05.513Z,17.35
2023-03-17T17:28:39.857Z,17.32
2023-03-17T17:30:12.911Z,17.26
2023-03-17T17:31:47.123Z,17.25
2023-03-17T17:33:19.820Z,17.24
2023-03-17T17:34:51.385Z,17.22
2023-03-17T17:36:25.373Z,17.18
2023-03-17T17:37:57.246Z,17.15
2023-03-17T17:39:28.991Z,17.09
2023-03-17T17:41:05.792Z,17.09
2023-03-17T17:42:37.546Z,17.08
2023-03-17T17:44:09.216Z,17.06
2023-03-17T17:45:42.232Z,17.04
2023-03-17T17:47:15.380Z,16.97
2023-03-17T17:48:47.535Z,16.98
2023-03-17T17:50:20.106Z,17.00
2023-03-17T17:51:51.819Z,16.97
2023-03-17T17:53:23.562Z,16.93
2023-03-17T17:54:55.728Z,16.88
2023-03-17T17:56:27.446Z,16.81
2023-03-17T17:57:59.042Z,16.78
2023-03-17T17:59:30.797Z,16.73
2023-03-17T18:01:04.814Z,16.69
2023-03-17T18:02:37.783Z,16.57
2023-03-17T18:04:10.568Z,16.52
2023-03-17T18:05:42.195Z,16.46
2023-03-17T18:07:13.779Z,16.43
2023-03-17T18:08:45.534Z,16.41
2023-03-17T18:10:19.197Z,16.38
2023-03-17T18:11:50.916Z,16.34
2023-03-17T18:13:22.918Z,16.33
2023-03-17T18:14:54.566Z,16.32
2023-03-17T18:16:26.191Z,16.31
2023-03-17T18:17:59.194Z,16.31
2023-03-17T18:19:30.761Z,16.29
2023-03-17T18:21:02.353Z,16.26
2023-03-17T18:22:35.061Z,16.22
2023-03-17T18:24:06.943Z,16.25
2023-03-17T18:25:38.684Z,16.22
2023-03-17T18:27:10.709Z,16.17
2023-03-17T18:28:42.495Z,16.14
2023-03-17T18:30:18.715Z,16.09
2023-03-17T18:31:52.642Z,16.10
2023-03-17T18:33:26.992Z,16.07
2023-03-17T18:35:00.831Z,16.03
2023-03-17T18:36:32.891Z,15.99
2023-03-17T18:38:04.659Z,15.98
2023-03-17T18:39:36.253Z,15.99
2023-03-17T18:41:08.303Z,15.95
2023-03-17T18:42:39.981Z,15.91
2023-03-17T18:44:11.860Z,15.87
2023-03-17T18:45:43.483Z,15.84
2023-03-17T18:47:16.428Z,15.80
2023-03-17T18:48:49.448Z,15.76
2023-03-17T18:50:22.316Z,15.77
2023-03-17T18:51:56.784Z,15.73
2023-03-17T18:53:30.742Z,15.73
2023-03-17T18:55:02.634Z,15.71
2023-03-17T18:56:34.439Z,15.70
2023-03-17T18:58:06.381Z,15.69
2023-03-17T18:59:38.015Z,15.69
2023-03-17T19:01:09.776Z,15.70
2023-03-17T19:02:42.291Z,15.67
2023-03-17T19:04:15.615Z,15.66
2023-03-17T19:05:47.290Z,15.62
2023-03-17T19:07:19.045Z,15.59
2023-03-17T19:08:51.196Z,15.58
2023-03-17T19:10:23.104Z,15.57
2023-03-17T19:11:54.599Z,15.57
2023-03-17T19:13:26.469Z,15.55
2023-03-17T19:14:58.245Z,15.53
2023-03-17T19:16:30.818Z,15.53
2023-03-17T19:18:02.546Z,15.52
2023-03-17T19:19:35.714Z,15.51
2023-03-17T19:21:07.610Z,15.52
2023-03-17T19:22:40.188Z,15.53
2023-03-17T19:24:12.388Z,15.50
2023-03-17T19:25:44.006Z,15.49
2023-03-17T19:27:15.906Z,15.49
2023-03-17T19:28:47.469Z,15.49
2023-03-17T19:30:19.196Z,15.50
2023-03-17T19:31:50.785Z,15.51
2023-03-17T19:33:22.439Z,15.51
2023-03-17T19:34:55.740Z,15.50
2023-03-17T19:36:27.323Z,15.49
2023-03-17T19:37:58.978Z,15.48
2023-03-17T19:39:31.446Z,15.49
2023-03-17T19:41:03.589Z,15.51
2023-03-17T19:42:35.505Z,15.53
2023-03-17T19:44:11.381Z,15.54
2023-03-17T19:45:43.030Z,15.53
2023-03-17T19:47:14.617Z,15.55
2023-03-17T19:48:46.356Z,15.54
2023-03-17T19:50:19.423Z,15.55
2023-03-17T19:51:51.199Z,15.53
2023-03-17T19:53:22.979Z,15.52
2023-03-17T19:54:54.604Z,15.53
2023-03-17T19:56:27.787Z,15.53
2023-03-17T19:57:59.432Z,15.53
2023-03-17T19:59:31.171Z,15.53
2023-03-17T20:01:03.868Z,15.51
2023-03-17T20:02:36.683Z,15.51
2023-03-17T20:04:09.830Z,15.49
2023-03-17T20:05:44.519Z,15.47
2023-03-17T20:07:16.759Z,15.47
2023-03-17T20:08:48.392Z,15.46
2023-03-17T20:10:19.960Z,15.43
2023-03-17T20:11:53.336Z,15.42
2023-03-17T20:13:24.958Z,15.41